sensor_id;sensor_type;location;lat;lon;timestamp;temperature;humidity
44855;DHT22;30591;48.228;16.398;2022-12-16T00:01:57;0.50;99.90
44855;DHT22;30591;48.228;16.398;2022-12-16T00:04:25;0.50;99.90
44855;DHT22;30591;48.228;16.398;2022-12-16T00:06:53;0.40;99.90
44855;DHT22;30591;48.228;16.398;2022-12-16T00:09:21;0.40;99.90
44855;DHT22;30591;48.228;16.398;2022-12-16T00:11:48;0.40;99.90
44855;DHT22;30591;48.228;16.398;2022-12-16T00:14:33;0.50;99.90
44855;DHT22;30591;48.228;16.398;2022-12-16T00:17:00;0.40;99.90
44855;DHT22;30591;48.228;16.398;2022-12-16T00:19:31;0.50;99.90
44855;DHT22;30591;48.228;16.398;2022-12-16T00:21:59;0.40;99.90
44855;DHT22;30591;48.228;16.398;2022-12-16T00:24:48;0.40;99.90
44855;DHT22;30591;48.228;16.398;2022-12-16T00:27:17;0.40;99.90
44855;DHT22;30591;48.228;16.398;2022-12-16T00:29:47;0.50;99.90
44855;DHT22;30591;48.228;16.398;2022-12-16T00:32:15;0.50;99.90
44855;DHT22;30591;48.228;16.398;2022-12-16T00:35:03;0.50;99.90
44855;DHT22;30591;48.228;16.398;2022-12-16T00:37:32;0.50;99.90
44855;DHT22;30591;48.228;16.398;2022-12-16T00:40:00;0.50;99.90
44855;DHT22;30591;48.228;16.398;2022-12-16T00:42:27;0.50;99.90
44855;DHT22;30591;48.228;16.398;2022-12-16T00:44:59;0.50;99.90
44855;DHT22;30591;48.228;16.398;2022-12-16T00:47:37;0.50;99.90
44855;DHT22;30591;48.228;16.398;2022-12-16T00:50:15;0.50;99.90
44855;DHT22;30591;48.228;16.398;2022-12-16T00:52:45;0.50;99.90
44855;DHT22;30591;48.228;16.398;2022-12-16T00:55:14;0.50;99.90
44855;DHT22;30591;48.228;16.398;2022-12-16T00:57:45;0.60;99.90
44855;DHT22;30591;48.228;16.398;2022-12-16T01:00:15;0.50;99.90
44855;DHT22;30591;48.228;16.398;2022-12-16T01:02:48;0.50;99.90
44855;DHT22;30591;48.228;16.398;2022-12-16T01:05:19;0.60;99.90
44855;DHT22;30591;48.228;16.398;2022-12-16T01:07:48;0.50;99.90
44855;DHT22;30591;48.228;16.398;2022-12-16T01:10:18;0.50;99.90
44855;DHT22;30591;48.228;16.398;2022-12-16T01:12:47;0.60;99.90
44855;DHT22;30591;48.228;16.398;2022-12-16T01:15:19;0.50;99.90
44855;DHT22;30591;48.228;16.398;2022-12-16T01:17:48;0.50;99.90
44855;DHT22;30591;48.228;16.398;2022-12-16T01:20:16;0.60;99.90
44855;DHT22;30591;48.228;16.398;2022-12-16T01:22:51;0.60;99.90
44855;DHT22;30591;48.228;16.398;2022-12-16T01:25:19;0.60;99.90
44855;DHT22;30591;48.228;16.398;2022-12-16T01:28:12;0.70;99.90
44855;DHT22;30591;48.228;16.398;2022-12-16T01:31:03;0.70;99.90
44855;DHT22;30591;48.228;16.398;2022-12-16T01:33:33;0.60;99.90
44855;DHT22;30591;48.228;16.398;2022-12-16T01:36:15;0.70;99.90
44855;DHT22;30591;48.228;16.398;2022-12-16T01:39:09;0.60;99.90
44855;DHT22;30591;48.228;16.398;2022-12-16T01:41:47;0.60;99.90
44855;DHT22;30591;48.228;16.398;2022-12-16T01:44:23;0.60;99.90
44855;DHT22;30591;48.228;16.398;2022-12-16T01:47:05;0.60;99.90
44855;DHT22;30591;48.228;16.398;2022-12-16T01:52:27;0.70;99.90
44855;DHT22;30591;48.228;16.398;2022-12-16T01:55:12;0.70;99.90
44855;DHT22;30591;48.228;16.398;2022-12-16T01:58:19;0.60;99.90
44855;DHT22;30591;48.228;16.398;2022-12-16T02:00:52;0.70;99.90
44855;DHT22;30591;48.228;16.398;2022-12-16T02:03:21;0.60;99.90
44855;DHT22;30591;48.228;16.398;2022-12-16T02:05:52;0.60;99.90
44855;DHT22;30591;48.228;16.398;2022-12-16T02:08:48;0.60;99.90
44855;DHT22;30591;48.228;16.398;2022-12-16T02:16:52;0.60;99.90
44855;DHT22;30591;48.228;16.398;2022-12-16T02:28:35;0.60;99.90
44855;DHT22;30591;48.228;16.398;2022-12-16T02:40:10;0.60;99.90
44855;DHT22;30591;48.228;16.398;2022-12-16T02:43:41;0.70;99.90
44855;DHT22;30591;48.228;16.398;2022-12-16T02:46:05;0.70;99.90
44855;DHT22;30591;48.228;16.398;2022-12-16T02:48:49;0.70;99.90
44855;DHT22;30591;48.228;16.398;2022-12-16T02:51:18;0.70;99.90
44855;DHT22;30591;48.228;16.398;2022-12-16T02:53:53;0.70;99.90
44855;DHT22;30591;48.228;16.398;2022-12-16T03:07:55;0.70;99.90
44855;DHT22;30591;48.228;16.398;2022-12-16T03:10:41;0.70;99.90
44855;DHT22;30591;48.228;16.398;2022-12-16T03:13:16;0.70;99.90
44855;DHT22;30591;48.228;16.398;2022-12-16T03:16:06;0.70;99.90
44855;DHT22;30591;48.228;16.398;2022-12-16T03:18:40;0.70;99.90
44855;DHT22;30591;48.228;16.398;2022-12-16T03:21:15;0.80;99.90
44855;DHT22;30591;48.228;16.398;2022-12-16T03:23:57;0.80;99.90
44855;DHT22;30591;48.228;16.398;2022-12-16T03:26:57;0.70;99.90
44855;DHT22;30591;48.228;16.398;2022-12-16T03:29:58;0.80;99.90
44855;DHT22;30591;48.228;16.398;2022-12-16T03:36:09;0.80;99.90
44855;DHT22;30591;48.228;16.398;2022-12-16T03:38:46;0.80;99.90
44855;DHT22;30591;48.228;16.398;2022-12-16T03:41:15;0.80;99.90
44855;DHT22;30591;48.228;16.398;2022-12-16T03:43:48;0.80;99.90
44855;DHT22;30591;48.228;16.398;2022-12-16T03:46:17;0.80;99.90
44855;DHT22;30591;48.228;16.398;2022-12-16T03:48:51;0.90;99.90
44855;DHT22;30591;48.228;16.398;2022-12-16T03:51:20;0.90;99.90
44855;DHT22;30591;48.228;16.398;2022-12-16T03:53:58;0.90;99.90
44855;DHT22;30591;48.228;16.398;2022-12-16T03:56:26;0.90;99.90
44855;DHT22;30591;48.228;16.398;2022-12-16T03:59:05;0.80;99.90
44855;DHT22;30591;48.228;16.398;2022-12-16T04:01:33;0.80;99.90
44855;DHT22;30591;48.228;16.398;2022-12-16T04:04:01;0.90;99.90
44855;DHT22;30591;48.228;16.398;2022-12-16T04:06:33;0.80;99.90
44855;DHT22;30591;48.228;16.398;2022-12-16T04:09:26;0.80;99.90
44855;DHT22;30591;48.228;16.398;2022-12-16T04:11:53;0.80;99.90
44855;DHT22;30591;48.228;16.398;2022-12-16T04:14:39;0.80;99.90
44855;DHT22;30591;48.228;16.398;2022-12-16T04:17:25;0.90;99.90
44855;DHT22;30591;48.228;16.398;2022-12-16T04:20:45;0.90;99.90
44855;DHT22;30591;48.228;16.398;2022-12-16T04:23:33;1.00;99.90
44855;DHT22;30591;48.228;16.398;2022-12-16T04:26:23;0.90;99.90
44855;DHT22;30591;48.228;16.398;2022-12-16T04:28:51;0.90;99.90
44855;DHT22;30591;48.228;16.398;2022-12-16T04:31:24;0.90;99.90
44855;DHT22;30591;48.228;16.398;2022-12-16T04:33:52;0.90;99.90
44855;DHT22;30591;48.228;16.398;2022-12-16T04:36:41;0.90;99.90
44855;DHT22;30591;48.228;16.398;2022-12-16T04:39:44;0.90;99.90
44855;DHT22;30591;48.228;16.398;2022-12-16T04:42:33;0.90;99.90
44855;DHT22;30591;48.228;16.398;2022-12-16T04:45:21;0.90;99.90
44855;DHT22;30591;48.228;16.398;2022-12-16T04:48:07;0.90;99.90
44855;DHT22;30591;48.228;16.398;2022-12-16T04:50:58;0.90;99.90
44855;DHT22;30591;48.228;16.398;2022-12-16T04:53:45;0.90;99.90
44855;DHT22;30591;48.228;16.398;2022-12-16T04:56:31;0.90;99.90
44855;DHT22;30591;48.228;16.398;2022-12-16T04:59:17;0.90;99.90
44855;DHT22;30591;48.228;16.398;2022-12-16T05:02:02;0.90;99.90
44855;DHT22;30591;48.228;16.398;2022-12-16T05:04:48;0.90;99.90
44855;DHT22;30591;48.228;16.398;2022-12-16T05:07:39;0.90;99.90
44855;DHT22;30591;48.228;16.398;2022-12-16T05:10:27;1.00;99.90
44855;DHT22;30591;48.228;16.398;2022-12-16T05:13:20;1.00;99.90
44855;DHT22;30591;48.228;16.398;2022-12-16T05:16:07;1.00;99.90
44855;DHT22;30591;48.228;16.398;2022-12-16T05:18:57;1.00;99.90
44855;DHT22;30591;48.228;16.398;2022-12-16T05:21:42;1.00;99.90
44855;DHT22;30591;48.228;16.398;2022-12-16T05:24:28;1.10;99.90
44855;DHT22;30591;48.228;16.398;2022-12-16T05:27:20;1.10;99.90
44855;DHT22;30591;48.228;16.398;2022-12-16T05:30:13;1.10;99.90
44855;DHT22;30591;48.228;16.398;2022-12-16T05:33:00;1.10;99.90
44855;DHT22;30591;48.228;16.398;2022-12-16T05:35:52;1.10;99.90
44855;DHT22;30591;48.228;16.398;2022-12-16T05:38:38;1.20;99.90
44855;DHT22;30591;48.228;16.398;2022-12-16T05:41:41;1.20;99.90
44855;DHT22;30591;48.228;16.398;2022-12-16T05:44:27;1.10;99.90
44855;DHT22;30591;48.228;16.398;2022-12-16T05:47:16;1.20;99.90
44855;DHT22;30591;48.228;16.398;2022-12-16T05:50:03;1.20;99.90
44855;DHT22;30591;48.228;16.398;2022-12-16T05:52:54;1.20;99.90
44855;DHT22;30591;48.228;16.398;2022-12-16T05:55:43;1.20;99.90
44855;DHT22;30591;48.228;16.398;2022-12-16T05:58:35;1.10;99.90
44855;DHT22;30591;48.228;16.398;2022-12-16T06:01:22;1.10;99.90
44855;DHT22;30591;48.228;16.398;2022-12-16T06:04:10;1.10;99.90
44855;DHT22;30591;48.228;16.398;2022-12-16T06:06:55;1.10;99.90
44855;DHT22;30591;48.228;16.398;2022-12-16T06:09:48;1.10;99.90
44855;DHT22;30591;48.228;16.398;2022-12-16T06:12:34;1.10;99.90
44855;DHT22;30591;48.228;16.398;2022-12-16T06:15:19;1.10;99.90
44855;DHT22;30591;48.228;16.398;2022-12-16T06:18:06;1.10;99.90
44855;DHT22;30591;48.228;16.398;2022-12-16T06:20:52;1.10;99.90
44855;DHT22;30591;48.228;16.398;2022-12-16T06:23:39;1.10;99.90
44855;DHT22;30591;48.228;16.398;2022-12-16T06:26:25;1.10;99.90
44855;DHT22;30591;48.228;16.398;2022-12-16T06:29:12;1.10;99.90
44855;DHT22;30591;48.228;16.398;2022-12-16T06:31:58;1.10;99.90
44855;DHT22;30591;48.228;16.398;2022-12-16T06:34:44;1.10;99.90
44855;DHT22;30591;48.228;16.398;2022-12-16T06:37:46;1.20;99.90
44855;DHT22;30591;48.228;16.398;2022-12-16T06:40:33;1.20;99.90
44855;DHT22;30591;48.228;16.398;2022-12-16T06:43:21;1.20;99.90
44855;DHT22;30591;48.228;16.398;2022-12-16T06:46:08;1.20;99.90
44855;DHT22;30591;48.228;16.398;2022-12-16T06:48:55;1.20;99.90
44855;DHT22;30591;48.228;16.398;2022-12-16T06:51:41;1.20;99.90
44855;DHT22;30591;48.228;16.398;2022-12-16T06:54:39;1.20;99.90
44855;DHT22;30591;48.228;16.398;2022-12-16T06:57:27;1.20;99.90
44855;DHT22;30591;48.228;16.398;2022-12-16T07:00:14;1.20;99.90
44855;DHT22;30591;48.228;16.398;2022-12-16T07:03:00;1.20;99.90
44855;DHT22;30591;48.228;16.398;2022-12-16T07:05:46;1.20;99.90
44855;DHT22;30591;48.228;16.398;2022-12-16T07:08:32;1.20;99.90
44855;DHT22;30591;48.228;16.398;2022-12-16T07:11:21;1.20;99.90
44855;DHT22;30591;48.228;16.398;2022-12-16T07:14:08;1.20;99.90
44855;DHT22;30591;48.228;16.398;2022-12-16T07:16:58;1.30;99.90
44855;DHT22;30591;48.228;16.398;2022-12-16T07:19:46;1.20;99.90
44855;DHT22;30591;48.228;16.398;2022-12-16T07:22:44;1.30;99.90
44855;DHT22;30591;48.228;16.398;2022-12-16T07:25:43;1.30;99.90
44855;DHT22;30591;48.228;16.398;2022-12-16T07:28:29;1.30;99.90
44855;DHT22;30591;48.228;16.398;2022-12-16T07:31:16;1.30;99.90
44855;DHT22;30591;48.228;16.398;2022-12-16T07:34:10;1.30;99.90
44855;DHT22;30591;48.228;16.398;2022-12-16T07:36:56;1.30;99.90
44855;DHT22;30591;48.228;16.398;2022-12-16T07:39:53;1.30;99.90
44855;DHT22;30591;48.228;16.398;2022-12-16T07:42:41;1.40;99.90
44855;DHT22;30591;48.228;16.398;2022-12-16T07:45:36;1.30;99.90
44855;DHT22;30591;48.228;16.398;2022-12-16T07:48:22;1.40;99.90
44855;DHT22;30591;48.228;16.398;2022-12-16T07:51:08;1.40;99.90
44855;DHT22;30591;48.228;16.398;2022-12-16T07:53:54;1.30;99.90
44855;DHT22;30591;48.228;16.398;2022-12-16T07:56:47;1.40;99.90
44855;DHT22;30591;48.228;16.398;2022-12-16T07:59:33;1.40;99.90
44855;DHT22;30591;48.228;16.398;2022-12-16T08:02:22;1.40;99.90
44855;DHT22;30591;48.228;16.398;2022-12-16T08:05:09;1.50;99.90
44855;DHT22;30591;48.228;16.398;2022-12-16T08:07:55;1.40;99.90
44855;DHT22;30591;48.228;16.398;2022-12-16T08:10:45;1.40;99.90
44855;DHT22;30591;48.228;16.398;2022-12-16T08:13:36;1.50;99.90
44855;DHT22;30591;48.228;16.398;2022-12-16T08:16:24;1.40;99.90
44855;DHT22;30591;48.228;16.398;2022-12-16T08:19:10;1.40;99.90
44855;DHT22;30591;48.228;16.398;2022-12-16T08:21:56;1.40;99.90
44855;DHT22;30591;48.228;16.398;2022-12-16T08:24:46;1.30;99.90
44855;DHT22;30591;48.228;16.398;2022-12-16T08:27:33;1.30;99.90
44855;DHT22;30591;48.228;16.398;2022-12-16T08:30:19;1.40;99.90
44855;DHT22;30591;48.228;16.398;2022-12-16T08:33:05;1.40;99.90
44855;DHT22;30591;48.228;16.398;2022-12-16T08:35:51;1.40;99.90
44855;DHT22;30591;48.228;16.398;2022-12-16T08:38:36;1.40;99.90
44855;DHT22;30591;48.228;16.398;2022-12-16T08:41:32;1.40;99.90
44855;DHT22;30591;48.228;16.398;2022-12-16T08:44:23;1.50;99.90
44855;DHT22;30591;48.228;16.398;2022-12-16T08:47:25;1.40;99.90
44855;DHT22;30591;48.228;16.398;2022-12-16T08:50:13;1.30;99.90
44855;DHT22;30591;48.228;16.398;2022-12-16T08:52:59;1.30;99.90
44855;DHT22;30591;48.228;16.398;2022-12-16T08:55:50;1.30;99.90
44855;DHT22;30591;48.228;16.398;2022-12-16T08:58:53;1.40;99.90
44855;DHT22;30591;48.228;16.398;2022-12-16T09:02:03;1.40;99.90
44855;DHT22;30591;48.228;16.398;2022-12-16T09:04:56;1.40;99.90
44855;DHT22;30591;48.228;16.398;2022-12-16T09:08:15;1.40;99.90
44855;DHT22;30591;48.228;16.398;2022-12-16T09:11:03;1.40;99.90
44855;DHT22;30591;48.228;16.398;2022-12-16T09:14:15;1.50;99.90
44855;DHT22;30591;48.228;16.398;2022-12-16T09:17:07;1.40;99.90
44855;DHT22;30591;48.228;16.398;2022-12-16T09:19:53;1.40;99.90
44855;DHT22;30591;48.228;16.398;2022-12-16T09:22:46;1.40;99.90
44855;DHT22;30591;48.228;16.398;2022-12-16T09:25:32;1.50;99.90
44855;DHT22;30591;48.228;16.398;2022-12-16T09:28:25;1.50;99.90
44855;DHT22;30591;48.228;16.398;2022-12-16T09:31:12;1.60;99.90
44855;DHT22;30591;48.228;16.398;2022-12-16T09:34:03;1.50;99.90
44855;DHT22;30591;48.228;16.398;2022-12-16T09:36:49;1.50;99.90
44855;DHT22;30591;48.228;16.398;2022-12-16T09:39:35;1.60;99.90
44855;DHT22;30591;48.228;16.398;2022-12-16T09:52:52;1.60;99.90
44855;DHT22;30591;48.228;16.398;2022-12-16T09:55:43;1.60;99.90
44855;DHT22;30591;48.228;16.398;2022-12-16T09:58:58;1.60;99.90
44855;DHT22;30591;48.228;16.398;2022-12-16T10:01:46;1.80;99.90
44855;DHT22;30591;48.228;16.398;2022-12-16T10:04:39;1.70;99.90
44855;DHT22;30591;48.228;16.398;2022-12-16T10:07:27;1.50;99.90
44855;DHT22;30591;48.228;16.398;2022-12-16T10:17:24;1.60;99.90
44855;DHT22;30591;48.228;16.398;2022-12-16T10:23:46;1.80;99.90
44855;DHT22;30591;48.228;16.398;2022-12-16T10:29:50;1.90;99.90
44855;DHT22;30591;48.228;16.398;2022-12-16T10:36:21;1.80;99.90
44855;DHT22;30591;48.228;16.398;2022-12-16T10:39:41;1.70;99.90
44855;DHT22;30591;48.228;16.398;2022-12-16T10:42:32;1.60;99.90
44855;DHT22;30591;48.228;16.398;2022-12-16T10:45:29;1.50;99.90
44855;DHT22;30591;48.228;16.398;2022-12-16T10:48:27;1.50;99.90
44855;DHT22;30591;48.228;16.398;2022-12-16T10:51:41;1.50;99.90
44855;DHT22;30591;48.228;16.398;2022-12-16T10:54:43;1.30;99.90
44855;DHT22;30591;48.228;16.398;2022-12-16T10:57:54;1.30;99.90
44855;DHT22;30591;48.228;16.398;2022-12-16T11:00:50;1.30;99.90
44855;DHT22;30591;48.228;16.398;2022-12-16T11:03:39;1.40;99.90
44855;DHT22;30591;48.228;16.398;2022-12-16T11:10:42;1.40;99.90
44855;DHT22;30591;48.228;16.398;2022-12-16T11:18:10;1.40;99.90
44855;DHT22;30591;48.228;16.398;2022-12-16T11:21:12;1.50;99.90
44855;DHT22;30591;48.228;16.398;2022-12-16T11:26:59;1.50;99.90
44855;DHT22;30591;48.228;16.398;2022-12-16T11:30:17;1.50;99.90
44855;DHT22;30591;48.228;16.398;2022-12-16T11:33:27;1.50;99.90
44855;DHT22;30591;48.228;16.398;2022-12-16T11:36:20;1.50;99.90
44855;DHT22;30591;48.228;16.398;2022-12-16T11:43:20;1.50;99.90
44855;DHT22;30591;48.228;16.398;2022-12-16T11:46:37;1.60;99.90
44855;DHT22;30591;48.228;16.398;2022-12-16T11:50:00;1.60;99.90
44855;DHT22;30591;48.228;16.398;2022-12-16T11:52:55;1.50;99.90
44855;DHT22;30591;48.228;16.398;2022-12-16T11:55:49;1.60;99.90
44855;DHT22;30591;48.228;16.398;2022-12-16T11:58:47;1.50;99.90
44855;DHT22;30591;48.228;16.398;2022-12-16T12:01:43;1.50;99.90
44855;DHT22;30591;48.228;16.398;2022-12-16T12:04:34;1.40;99.90
44855;DHT22;30591;48.228;16.398;2022-12-16T12:10:44;1.50;99.90
44855;DHT22;30591;48.228;16.398;2022-12-16T12:20:57;1.60;99.90
44855;DHT22;30591;48.228;16.398;2022-12-16T12:24:29;1.50;99.90
44855;DHT22;30591;48.228;16.398;2022-12-16T12:37:15;1.70;99.90
44855;DHT22;30591;48.228;16.398;2022-12-16T12:47:18;1.70;99.90
44855;DHT22;30591;48.228;16.398;2022-12-16T12:50:35;1.60;99.90
44855;DHT22;30591;48.228;16.398;2022-12-16T12:53:52;1.70;99.90
44855;DHT22;30591;48.228;16.398;2022-12-16T13:00:42;1.70;99.90
44855;DHT22;30591;48.228;16.398;2022-12-16T13:04:09;1.70;99.90
44855;DHT22;30591;48.228;16.398;2022-12-16T13:06:58;1.70;99.90
44855;DHT22;30591;48.228;16.398;2022-12-16T13:22:40;1.70;99.90
44855;DHT22;30591;48.228;16.398;2022-12-16T13:36:55;1.90;99.90
44855;DHT22;30591;48.228;16.398;2022-12-16T13:43:55;1.90;99.90
44855;DHT22;30591;48.228;16.398;2022-12-16T13:46:55;1.80;99.90
44855;DHT22;30591;48.228;16.398;2022-12-16T13:49:51;1.80;99.90
44855;DHT22;30591;48.228;16.398;2022-12-16T14:03:47;1.60;99.90
44855;DHT22;30591;48.228;16.398;2022-12-16T14:06:42;1.60;99.90
44855;DHT22;30591;48.228;16.398;2022-12-16T14:09:58;1.60;99.90
44855;DHT22;30591;48.228;16.398;2022-12-16T14:13:04;1.50;99.90
44855;DHT22;30591;48.228;16.398;2022-12-16T14:19:33;1.50;99.90
44855;DHT22;30591;48.228;16.398;2022-12-16T14:30:24;1.50;99.90
44855;DHT22;30591;48.228;16.398;2022-12-16T14:33:22;1.40;99.90
44855;DHT22;30591;48.228;16.398;2022-12-16T14:39:58;1.50;99.90
44855;DHT22;30591;48.228;16.398;2022-12-16T14:43:20;1.40;99.90
44855;DHT22;30591;48.228;16.398;2022-12-16T14:46:30;1.50;99.90
44855;DHT22;30591;48.228;16.398;2022-12-16T14:49:25;1.40;99.90
44855;DHT22;30591;48.228;16.398;2022-12-16T14:52:26;1.40;99.90
44855;DHT22;30591;48.228;16.398;2022-12-16T14:55:48;1.40;99.90
44855;DHT22;30591;48.228;16.398;2022-12-16T14:59:08;1.40;99.90
44855;DHT22;30591;48.228;16.398;2022-12-16T15:02:27;1.40;99.90
44855;DHT22;30591;48.228;16.398;2022-12-16T15:05:18;1.40;99.90
44855;DHT22;30591;48.228;16.398;2022-12-16T15:08:40;1.40;99.90
44855;DHT22;30591;48.228;16.398;2022-12-16T15:11:28;1.40;99.90
44855;DHT22;30591;48.228;16.398;2022-12-16T15:17:54;1.40;99.90
44855;DHT22;30591;48.228;16.398;2022-12-16T15:21:00;1.40;99.90
44855;DHT22;30591;48.228;16.398;2022-12-16T15:23:50;1.40;99.90
44855;DHT22;30591;48.228;16.398;2022-12-16T15:26:41;1.30;99.90
44855;DHT22;30591;48.228;16.398;2022-12-16T15:29:39;1.40;99.90
44855;DHT22;30591;48.228;16.398;2022-12-16T15:32:40;1.30;99.90
44855;DHT22;30591;48.228;16.398;2022-12-16T15:39:10;1.30;99.90
44855;DHT22;30591;48.228;16.398;2022-12-16T15:46:28;1.30;99.90
44855;DHT22;30591;48.228;16.398;2022-12-16T15:49:36;1.30;99.90
44855;DHT22;30591;48.228;16.398;2022-12-16T15:52:40;1.30;99.90
44855;DHT22;30591;48.228;16.398;2022-12-16T15:55:32;1.20;99.90
44855;DHT22;30591;48.228;16.398;2022-12-16T16:08:39;1.20;99.90
44855;DHT22;30591;48.228;16.398;2022-12-16T16:11:29;1.20;99.90
44855;DHT22;30591;48.228;16.398;2022-12-16T16:18:40;1.20;99.90
44855;DHT22;30591;48.228;16.398;2022-12-16T16:21:29;1.10;99.90
44855;DHT22;30591;48.228;16.398;2022-12-16T16:24:18;1.10;99.90
44855;DHT22;30591;48.228;16.398;2022-12-16T16:27:31;1.10;99.90
44855;DHT22;30591;48.228;16.398;2022-12-16T16:34:09;1.00;99.90
44855;DHT22;30591;48.228;16.398;2022-12-16T16:36:58;1.00;99.90
44855;DHT22;30591;48.228;16.398;2022-12-16T16:39:44;1.00;99.90
44855;DHT22;30591;48.228;16.398;2022-12-16T16:42:35;1.00;99.90
44855;DHT22;30591;48.228;16.398;2022-12-16T16:45:23;0.90;99.90
44855;DHT22;30591;48.228;16.398;2022-12-16T16:48:27;1.00;99.90
44855;DHT22;30591;48.228;16.398;2022-12-16T16:51:14;1.00;99.90
44855;DHT22;30591;48.228;16.398;2022-12-16T16:54:07;1.00;99.90
44855;DHT22;30591;48.228;16.398;2022-12-16T16:56:59;0.90;99.90
44855;DHT22;30591;48.228;16.398;2022-12-16T17:00:03;0.90;99.90
44855;DHT22;30591;48.228;16.398;2022-12-16T17:02:49;0.90;99.90
44855;DHT22;30591;48.228;16.398;2022-12-16T17:05:42;0.90;99.90
44855;DHT22;30591;48.228;16.398;2022-12-16T17:08:29;0.90;99.90
44855;DHT22;30591;48.228;16.398;2022-12-16T17:11:20;0.80;99.90
44855;DHT22;30591;48.228;16.398;2022-12-16T17:14:31;0.90;99.90
44855;DHT22;30591;48.228;16.398;2022-12-16T17:21:08;0.80;99.90
44855;DHT22;30591;48.228;16.398;2022-12-16T17:23:58;0.80;99.90
44855;DHT22;30591;48.228;16.398;2022-12-16T17:26:46;0.80;99.90
44855;DHT22;30591;48.228;16.398;2022-12-16T17:33:16;0.80;99.90
44855;DHT22;30591;48.228;16.398;2022-12-16T17:36:12;0.80;99.90
44855;DHT22;30591;48.228;16.398;2022-12-16T17:39:03;0.70;99.90
44855;DHT22;30591;48.228;16.398;2022-12-16T17:42:00;0.70;99.90
44855;DHT22;30591;48.228;16.398;2022-12-16T17:44:46;0.80;99.90
44855;DHT22;30591;48.228;16.398;2022-12-16T17:47:37;0.70;99.90
44855;DHT22;30591;48.228;16.398;2022-12-16T17:50:26;0.80;99.90
44855;DHT22;30591;48.228;16.398;2022-12-16T17:53:14;0.70;99.90
44855;DHT22;30591;48.228;16.398;2022-12-16T17:56:04;0.80;99.90
44855;DHT22;30591;48.228;16.398;2022-12-16T17:58:50;0.80;99.90
44855;DHT22;30591;48.228;16.398;2022-12-16T18:01:39;0.80;99.90
44855;DHT22;30591;48.228;16.398;2022-12-16T18:04:39;0.80;99.90
44855;DHT22;30591;48.228;16.398;2022-12-16T18:07:27;0.80;99.90
44855;DHT22;30591;48.228;16.398;2022-12-16T18:10:15;0.80;99.90
44855;DHT22;30591;48.228;16.398;2022-12-16T18:13:02;0.80;99.90
44855;DHT22;30591;48.228;16.398;2022-12-16T18:15:51;0.80;99.90
44855;DHT22;30591;48.228;16.398;2022-12-16T18:18:37;0.80;99.90
44855;DHT22;30591;48.228;16.398;2022-12-16T18:21:35;0.80;99.90
44855;DHT22;30591;48.228;16.398;2022-12-16T18:24:22;0.70;99.90
44855;DHT22;30591;48.228;16.398;2022-12-16T18:27:15;0.70;99.90
44855;DHT22;30591;48.228;16.398;2022-12-16T18:30:03;0.70;99.90
44855;DHT22;30591;48.228;16.398;2022-12-16T18:32:51;0.80;99.90
44855;DHT22;30591;48.228;16.398;2022-12-16T18:35:37;0.70;99.90
44855;DHT22;30591;48.228;16.398;2022-12-16T18:38:39;0.70;99.90
44855;DHT22;30591;48.228;16.398;2022-12-16T18:41:26;0.70;99.90
44855;DHT22;30591;48.228;16.398;2022-12-16T18:47:38;0.60;99.90
44855;DHT22;30591;48.228;16.398;2022-12-16T18:50:39;0.60;99.90
44855;DHT22;30591;48.228;16.398;2022-12-16T18:53:24;0.60;99.90
44855;DHT22;30591;48.228;16.398;2022-12-16T18:56:11;0.60;99.90
44855;DHT22;30591;48.228;16.398;2022-12-16T18:58:58;0.50;99.90
44855;DHT22;30591;48.228;16.398;2022-12-16T19:01:55;0.50;99.90
44855;DHT22;30591;48.228;16.398;2022-12-16T19:04:42;0.50;99.90
44855;DHT22;30591;48.228;16.398;2022-12-16T19:07:28;0.50;99.90
44855;DHT22;30591;48.228;16.398;2022-12-16T19:10:16;0.50;99.90
44855;DHT22;30591;48.228;16.398;2022-12-16T19:13:12;0.50;99.90
44855;DHT22;30591;48.228;16.398;2022-12-16T19:16:01;0.40;99.90
44855;DHT22;30591;48.228;16.398;2022-12-16T19:19:10;0.50;99.90
44855;DHT22;30591;48.228;16.398;2022-12-16T19:21:57;0.40;99.90
44855;DHT22;30591;48.228;16.398;2022-12-16T19:24:53;0.40;99.90
44855;DHT22;30591;48.228;16.398;2022-12-16T19:27:38;0.40;99.90
44855;DHT22;30591;48.228;16.398;2022-12-16T19:30:56;0.40;99.90
44855;DHT22;30591;48.228;16.398;2022-12-16T19:33:43;0.40;99.90
44855;DHT22;30591;48.228;16.398;2022-12-16T19:36:35;0.40;99.90
44855;DHT22;30591;48.228;16.398;2022-12-16T19:39:22;0.50;99.90
44855;DHT22;30591;48.228;16.398;2022-12-16T19:42:15;0.40;99.90
44855;DHT22;30591;48.228;16.398;2022-12-16T19:45:01;0.40;99.90
44855;DHT22;30591;48.228;16.398;2022-12-16T19:48:05;0.40;99.90
44855;DHT22;30591;48.228;16.398;2022-12-16T19:50:57;0.40;99.90
44855;DHT22;30591;48.228;16.398;2022-12-16T19:53:55;0.40;99.90
44855;DHT22;30591;48.228;16.398;2022-12-16T20:00:47;0.30;99.90
44855;DHT22;30591;48.228;16.398;2022-12-16T20:03:40;0.30;99.90
44855;DHT22;30591;48.228;16.398;2022-12-16T20:06:35;0.30;99.90
44855;DHT22;30591;48.228;16.398;2022-12-16T20:09:53;0.30;99.90
44855;DHT22;30591;48.228;16.398;2022-12-16T20:13:06;0.20;99.90
44855;DHT22;30591;48.228;16.398;2022-12-16T20:20:06;0.30;99.90
44855;DHT22;30591;48.228;16.398;2022-12-16T20:23:29;0.20;99.90
44855;DHT22;30591;48.228;16.398;2022-12-16T20:26:44;0.30;99.90
44855;DHT22;30591;48.228;16.398;2022-12-16T20:33:36;0.20;99.90
44855;DHT22;30591;48.228;16.398;2022-12-16T20:36:55;0.20;99.90
44855;DHT22;30591;48.228;16.398;2022-12-16T20:39:46;0.20;99.90
44855;DHT22;30591;48.228;16.398;2022-12-16T20:42:33;0.20;99.90
44855;DHT22;30591;48.228;16.398;2022-12-16T20:45:45;0.10;99.90
44855;DHT22;30591;48.228;16.398;2022-12-16T20:48:31;0.10;99.90
44855;DHT22;30591;48.228;16.398;2022-12-16T20:51:34;0.10;99.90
44855;DHT22;30591;48.228;16.398;2022-12-16T20:58:05;0.10;99.90
44855;DHT22;30591;48.228;16.398;2022-12-16T21:00:55;0.10;99.90
44855;DHT22;30591;48.228;16.398;2022-12-16T21:12:13;0.10;99.90
44855;DHT22;30591;48.228;16.398;2022-12-16T21:19:25;0.00;99.90
44855;DHT22;30591;48.228;16.398;2022-12-16T21:26:30;0.00;99.90
44855;DHT22;30591;48.228;16.398;2022-12-16T21:29:47;0.00;99.90
44855;DHT22;30591;48.228;16.398;2022-12-16T21:40:33;-0.10;99.90
44855;DHT22;30591;48.228;16.398;2022-12-16T21:43:27;0.00;99.90
44855;DHT22;30591;48.228;16.398;2022-12-16T21:46:26;-0.10;99.90
44855;DHT22;30591;48.228;16.398;2022-12-16T21:49:14;-0.10;99.90
44855;DHT22;30591;48.228;16.398;2022-12-16T21:55:31;-0.10;99.90
44855;DHT22;30591;48.228;16.398;2022-12-16T21:58:18;-0.10;99.90
44855;DHT22;30591;48.228;16.398;2022-12-16T22:01:35;-0.10;99.90
44855;DHT22;30591;48.228;16.398;2022-12-16T22:04:35;-0.10;99.90
44855;DHT22;30591;48.228;16.398;2022-12-16T22:07:23;-0.10;99.90
44855;DHT22;30591;48.228;16.398;2022-12-16T22:10:37;-0.10;99.90